CWYO2: Chewey Road

Data processed at Tue May 21 2019 23:50


All information presented herein is the property of the government of the United States of America and may be revised or deleted at any time without prior notice.
Dissemination of this information without the expressed written consent of the Public Affairs Office, Tulsa District U.S. Army Corps of Engineers is strictly prohibited.
These data are gathered electronically and, as presented, have not undergone any form of quality control. These data are not guaranteed to be valid or correct.
Go to home page.
Go to station list.
Go to home page.

Upstream stations:

Downstream station:
Previous Day
Next Day
Current Day
    
SHEF ID:       CWYO2     Illinois River at Chewey, OK
STATION TYPE:  
Regulating: Stage =    12.00, Flow =    13446

               PRECIP     STAGE  STAGE(2)  RIV-FLOW  BAT-LOAD
                   in        ft        ft       cfs      volt
              Ccp-Rev   Ccp-Rev   Ccp-Rev   Ccp-Rev   Ccp-Rev
(US/Central)
05/21 00:00      0.21      4.77      5.12      1108     12.65
05/21 01:00      1.20      4.95      5.26      1278     12.60
05/21 02:00      0.00      5.07      5.38      1399     12.60
05/21 03:00      0.00      5.22      5.53      1558     12.60
05/21 04:00      0.00      5.35      5.65      1702     12.60
05/21 05:00      0.00      5.40      5.70      1760     12.54
05/21 06:00      0.00      5.78      6.07      2230     12.54
05/21 07:00      0.00      6.36      6.62      3060     12.54
05/21 08:00      0.00      6.65      6.94      3526     12.54
05/21 09:00      0.00      6.70      6.99      3610     12.54
05/21 10:00      0.75      6.62      6.96      3476     12.54
05/21 11:00      0.69      6.67      6.97      3560     12.54
05/21 12:00      0.02      6.77      7.04      3730     12.54
05/21 13:00      0.06      6.87      7.13      3903     12.65
05/21 14:00      0.01      6.96      7.25      4063      ----
05/21 15:00      0.02      7.20      7.48      4409     12.60
05/21 16:00      0.01      7.53      7.85      4879     12.60
05/21 17:00      0.00      7.84      8.11      5344     13.00
05/21 18:00      0.00      7.98      8.29      5561     13.07
05/21 19:00      0.00      8.00      8.25      5592     12.83
05/21 20:00      0.00      7.93      8.20      5483     12.77
05/21 21:00      0.00      7.83      8.08      5329     12.65
05/21 22:00      0.00      7.77      8.02      5237     12.60
05/21 23:00      0.00      7.75      8.00      5207     12.60